createdAt,value
2019-05-11T00:00:34.492Z,100934.25
2019-05-11T00:03:07.059Z,100932.05
2019-05-11T00:05:39.087Z,100931.33
2019-05-11T00:08:11.335Z,100934.97
2019-05-11T00:10:43.576Z,100934.12
2019-05-11T00:13:15.763Z,100939.48
2019-05-11T00:15:51.279Z,100935.16
2019-05-11T00:18:23.390Z,100941.11
2019-05-11T00:20:55.657Z,100932.23
2019-05-11T00:23:27.819Z,100935.95
2019-05-11T00:26:00.094Z,100938.73
2019-05-11T00:28:32.389Z,100939.14
2019-05-11T00:31:05.409Z,100937.96
2019-05-11T00:33:37.574Z,100938.39
2019-05-11T00:36:09.601Z,100936.62
2019-05-11T00:38:41.832Z,100934.28
2019-05-11T00:41:14.026Z,100936.11
2019-05-11T00:43:46.060Z,100936.22
2019-05-11T00:46:18.526Z,100937.95
2019-05-11T00:48:50.650Z,100936.66
2019-05-11T00:51:22.962Z,100942.36
2019-05-11T00:53:55.823Z,100940.23
2019-05-11T00:56:28.143Z,100943.95
2019-05-11T00:59:00.425Z,100940.09
2019-05-11T01:01:32.858Z,100946.29
2019-05-11T01:04:05.177Z,100943.00
2019-05-11T01:06:37.766Z,100939.13
2019-05-11T01:09:10.586Z,100937.52
2019-05-11T01:11:42.959Z,100940.98
2019-05-11T01:14:15.258Z,100937.94
2019-05-11T01:16:49.466Z,100933.26
2019-05-11T01:19:24.508Z,100933.85
2019-05-11T01:21:56.765Z,100930.33
2019-05-11T01:24:29.099Z,100934.03
2019-05-11T01:27:03.975Z,100933.30
2019-05-11T01:29:36.236Z,100933.66
2019-05-11T01:32:08.718Z,100930.61
2019-05-11T01:34:40.866Z,100924.77
2019-05-11T01:37:13.064Z,100931.06
2019-05-11T01:39:45.354Z,100933.14
2019-05-11T01:42:17.402Z,100932.08
2019-05-11T01:44:49.616Z,100926.81
2019-05-11T01:47:21.750Z,100928.31
2019-05-11T01:49:53.959Z,100937.37
2019-05-11T01:52:26.247Z,100933.24
2019-05-11T01:54:58.294Z,100938.03
2019-05-11T01:57:30.606Z,100934.89
2019-05-11T02:00:03.323Z,100935.13
2019-05-11T02:02:35.588Z,100933.73
2019-05-11T02:05:25.160Z,100926.50
2019-05-11T02:07:57.336Z,100929.54
2019-05-11T02:10:29.724Z,100933.73
2019-05-11T02:13:02.284Z,100934.01
2019-05-11T02:15:34.799Z,100933.42
2019-05-11T02:18:07.175Z,100931.91
2019-05-11T02:20:39.276Z,100932.99
2019-05-11T02:23:11.433Z,100933.23
2019-05-11T02:25:43.652Z,100933.73
2019-05-11T02:28:15.909Z,100936.73
2019-05-11T02:30:48.231Z,100935.93
2019-05-11T02:33:20.783Z,100933.38
2019-05-11T02:35:53.129Z,100944.81
2019-05-11T02:38:25.324Z,100940.86
2019-05-11T02:40:57.474Z,100945.75
2019-05-11T02:43:29.633Z,100950.19
2019-05-11T02:46:03.775Z,100950.78
2019-05-11T02:48:36.383Z,100950.78
2019-05-11T02:51:09.805Z,100952.98
2019-05-11T02:53:43.920Z,100951.03
2019-05-11T02:56:16.163Z,100950.65
2019-05-11T02:58:48.394Z,100950.41
2019-05-11T03:01:20.821Z,100954.84
2019-05-11T03:03:53.343Z,100950.89
2019-05-11T03:06:25.596Z,100960.33
2019-05-11T03:08:57.649Z,100961.38
2019-05-11T03:11:29.813Z,100956.03
2019-05-11T03:14:02.366Z,100959.08
2019-05-11T03:16:35.002Z,100967.36
2019-05-11T03:19:07.155Z,100961.20
2019-05-11T03:21:39.324Z,100967.95
2019-05-11T03:24:11.492Z,100979.39
2019-05-11T03:26:43.701Z,100973.20
2019-05-11T03:29:17.883Z,100974.59
2019-05-11T03:31:50.194Z,100976.83
2019-05-11T03:34:22.287Z,100975.09
2019-05-11T03:36:54.558Z,100976.83
2019-05-11T03:39:26.955Z,100971.23
2019-05-11T03:42:13.210Z,100979.14
2019-05-11T03:44:33.534Z,100969.59
2019-05-11T03:47:06.082Z,100979.95
2019-05-11T03:49:38.381Z,100981.10
2019-05-11T03:52:10.452Z,100987.29
2019-05-11T03:54:42.647Z,100983.20
2019-05-11T03:57:14.786Z,100982.95
2019-05-11T03:59:47.086Z,100979.32
2019-05-11T04:02:19.268Z,100982.95
2019-05-11T04:04:51.749Z,100979.00
2019-05-11T04:07:24.220Z,100984.25
2019-05-11T04:09:56.521Z,100981.70
2019-05-11T04:12:34.818Z,100984.98
2019-05-11T04:15:03.438Z,100983.48
2019-05-11T04:17:35.629Z,100986.77
2019-05-11T04:20:08.067Z,100984.66
2019-05-11T04:22:40.350Z,100994.95
2019-05-11T04:25:12.647Z,100989.17
2019-05-11T04:27:45.059Z,100991.27
2019-05-11T04:30:17.557Z,100994.23
2019-05-11T04:32:49.842Z,100993.30
2019-05-11T04:35:21.983Z,100999.37
2019-05-11T04:37:54.131Z,100998.47
2019-05-11T04:40:26.439Z,101005.36
2019-05-11T04:42:58.673Z,101002.80
2019-05-11T04:45:31.173Z,101008.53
2019-05-11T04:48:06.916Z,101006.95
2019-05-11T04:50:39.054Z,101003.13
2019-05-11T04:53:11.346Z,101002.66
2019-05-11T04:55:43.633Z,101004.75
2019-05-11T04:58:16.269Z,101015.23
2019-05-11T05:00:49.172Z,101015.53
2019-05-11T05:03:21.735Z,101009.86
2019-05-11T05:05:54.248Z,101015.73
2019-05-11T05:08:27.995Z,101015.20
2019-05-11T05:11:00.787Z,101014.05
2019-05-11T05:13:33.322Z,101022.34
2019-05-11T05:16:05.622Z,101018.89
2019-05-11T05:18:38.060Z,101017.22
2019-05-11T05:21:10.228Z,101014.91
2019-05-11T05:23:42.534Z,101008.84
2019-05-11T05:26:14.816Z,101003.27
2019-05-11T05:28:47.314Z,101000.13
2019-05-11T05:31:19.546Z,101000.66
2019-05-11T05:33:51.687Z,100999.83
2019-05-11T05:36:23.957Z,100991.27
2019-05-11T05:38:56.019Z,100985.30
2019-05-11T05:41:28.303Z,100978.67
2019-05-11T05:44:00.540Z,100982.73
2019-05-11T05:46:32.807Z,100979.30
2019-05-11T05:49:04.874Z,100976.31
2019-05-11T05:51:37.001Z,100974.07
2019-05-11T05:54:09.136Z,100976.11
2019-05-11T05:56:41.278Z,100980.77
2019-05-11T05:59:13.530Z,100976.69
2019-05-11T06:01:45.888Z,100977.10
2019-05-11T06:04:18.097Z,100976.92
2019-05-11T06:06:50.319Z,100978.33
2019-05-11T06:09:22.495Z,100976.91
2019-05-11T06:11:54.807Z,100981.17
2019-05-11T06:14:26.982Z,100980.16
2019-05-11T06:16:59.118Z,100982.20
2019-05-11T06:19:31.346Z,100973.88
2019-05-11T06:22:03.601Z,100977.52
2019-05-11T06:24:35.833Z,100975.08
2019-05-11T06:27:08.119Z,100978.74
2019-05-11T06:29:40.154Z,100983.22
2019-05-11T06:32:12.206Z,100982.39
2019-05-11T06:34:44.463Z,100978.14
2019-05-11T06:37:16.629Z,100979.96
2019-05-11T06:39:49.225Z,100977.92
2019-05-11T06:42:21.514Z,100974.46
2019-05-11T06:44:53.860Z,100974.65
2019-05-11T06:47:26.104Z,100971.98
2019-05-11T06:49:58.516Z,100982.10
2019-05-11T06:52:30.947Z,100970.95
2019-05-11T06:55:03.490Z,100970.95
2019-05-11T06:57:36.215Z,100974.20
2019-05-11T07:00:09.525Z,100968.94
2019-05-11T07:02:41.868Z,100969.14
2019-05-11T07:05:14.286Z,100972.20
2019-05-11T07:07:47.992Z,100963.67
2019-05-11T07:10:20.417Z,100975.20
2019-05-11T07:12:52.869Z,100971.56
2019-05-11T07:15:25.088Z,100964.05
2019-05-11T07:17:57.419Z,100964.05
2019-05-11T07:20:29.871Z,100956.12
2019-05-11T07:23:02.447Z,100960.80
2019-05-11T07:25:34.671Z,100958.16
2019-05-11T07:28:06.894Z,100959.54
2019-05-11T07:30:39.266Z,100960.95
2019-05-11T07:33:11.551Z,100961.32
2019-05-11T07:35:43.774Z,100960.84
2019-05-11T07:38:18.380Z,100951.45
2019-05-11T07:40:50.810Z,100950.22
2019-05-11T07:43:23.844Z,100954.00
2019-05-11T07:45:58.424Z,100956.74
2019-05-11T07:48:31.466Z,100958.11
2019-05-11T07:51:03.647Z,100959.32
2019-05-11T07:53:38.130Z,100959.13
2019-05-11T07:56:10.201Z,100959.77
2019-05-11T07:58:42.670Z,100959.55
2019-05-11T08:01:14.896Z,100957.52
2019-05-11T08:03:48.330Z,100953.69
2019-05-11T08:06:21.388Z,100955.91
2019-05-11T08:08:54.089Z,100956.74
2019-05-11T08:11:30.703Z,100947.98
2019-05-11T08:14:01.283Z,100944.62
2019-05-11T08:16:33.913Z,100941.03
2019-05-11T08:19:09.835Z,100943.89
2019-05-11T08:21:40.858Z,100944.33
2019-05-11T08:24:13.132Z,100941.28
2019-05-11T08:26:47.856Z,100935.91
2019-05-11T08:29:19.653Z,100936.82
2019-05-11T08:31:51.923Z,100925.83
2019-05-11T08:34:24.684Z,100923.59
2019-05-11T08:36:58.358Z,100928.78
2019-05-11T08:39:30.856Z,100922.47
2019-05-11T08:42:03.512Z,100917.52
2019-05-11T08:44:38.012Z,100918.42
2019-05-11T08:47:10.147Z,100911.28
2019-05-11T08:49:42.451Z,100904.56
2019-05-11T08:52:14.659Z,100903.48
2019-05-11T08:54:48.642Z,100893.76
2019-05-11T08:57:21.155Z,100898.98
2019-05-11T08:59:53.394Z,100896.55
2019-05-11T09:02:27.648Z,100897.13
2019-05-11T09:04:59.623Z,100898.98
2019-05-11T09:07:31.963Z,100890.24
2019-05-11T09:10:04.286Z,100890.56
2019-05-11T09:12:38.203Z,100885.92
2019-05-11T09:15:10.824Z,100892.34
2019-05-11T09:17:42.971Z,100892.34
2019-05-11T09:20:17.845Z,100886.91
2019-05-11T09:22:49.535Z,100890.16
2019-05-11T09:25:21.818Z,100888.53
2019-05-11T09:27:54.038Z,100894.55
2019-05-11T09:30:28.645Z,100895.97
2019-05-11T09:33:00.173Z,100894.41
2019-05-11T09:35:45.723Z,100889.91
2019-05-11T09:38:08.051Z,100895.66
2019-05-11T09:40:40.330Z,100890.80
2019-05-11T09:43:12.383Z,100890.36
2019-05-11T09:45:48.452Z,100891.53
2019-05-11T09:48:18.413Z,100886.41
2019-05-11T09:50:50.724Z,100889.33
2019-05-11T09:53:22.940Z,100884.48
2019-05-11T09:55:55.187Z,100884.79
2019-05-11T09:58:28.083Z,100889.13
2019-05-11T10:01:00.383Z,100884.89
2019-05-11T10:03:32.691Z,100881.88
2019-05-11T10:06:08.337Z,100886.30
2019-05-11T10:08:40.796Z,100885.89
2019-05-11T10:11:13.111Z,100887.61
2019-05-11T10:13:47.614Z,100878.21
2019-05-11T10:16:22.138Z,100881.34
2019-05-11T10:18:54.670Z,100870.74
2019-05-11T10:21:27.929Z,100876.66
2019-05-11T10:24:00.390Z,100874.73
2019-05-11T10:26:32.495Z,100873.27
2019-05-11T10:29:07.711Z,100871.10
2019-05-11T10:31:39.151Z,100867.00
2019-05-11T10:34:11.722Z,100867.23
2019-05-11T10:36:44.397Z,100873.31
2019-05-11T10:39:18.706Z,100865.10
2019-05-11T10:41:50.696Z,100868.41
2019-05-11T10:44:23.168Z,100858.95
2019-05-11T10:46:55.764Z,100863.64
2019-05-11T10:49:28.846Z,100862.37
2019-05-11T10:52:01.369Z,100859.13
2019-05-11T10:54:33.706Z,100853.70
2019-05-11T10:57:08.325Z,100855.91
2019-05-11T10:59:39.944Z,100859.05
2019-05-11T11:02:12.324Z,100849.09
2019-05-11T11:04:44.572Z,100851.41
2019-05-11T11:07:19.313Z,100852.28
2019-05-11T11:09:50.734Z,100854.56
2019-05-11T11:12:22.951Z,100850.36
2019-05-11T11:14:55.132Z,100844.56
2019-05-11T11:17:28.722Z,100845.86
2019-05-11T11:20:02.768Z,100836.37
2019-05-11T11:22:40.113Z,100837.56
2019-05-11T11:25:08.910Z,100834.73
2019-05-11T11:27:41.263Z,100838.39
2019-05-11T11:30:13.816Z,100832.12
2019-05-11T11:32:48.102Z,100830.37
2019-05-11T11:35:19.906Z,100825.73
2019-05-11T11:37:52.119Z,100825.95
2019-05-11T11:40:24.424Z,100818.48
2019-05-11T11:42:58.125Z,100818.91
2019-05-11T11:45:30.552Z,100815.91
2019-05-11T11:48:03.401Z,100813.91
2019-05-11T11:50:37.765Z,100809.87
2019-05-11T11:53:12.282Z,100806.31
2019-05-11T11:55:48.154Z,100807.97
2019-05-11T11:58:23.805Z,100806.43
2019-05-11T12:00:55.093Z,100810.70
2019-05-11T12:03:27.810Z,100806.70
2019-05-11T12:06:00.249Z,100808.97
2019-05-11T12:08:32.566Z,100799.09
2019-05-11T12:11:04.963Z,100799.73
2019-05-11T12:13:38.427Z,100797.89
2019-05-11T12:16:11.007Z,100810.41
2019-05-11T12:18:43.265Z,100809.38
2019-05-11T12:21:15.624Z,100806.67
2019-05-11T12:23:48.635Z,100811.20
2019-05-11T12:29:38.405Z,100807.02
2019-05-11T12:32:14.925Z,100805.23
2019-05-11T12:34:48.677Z,100805.01
2019-05-11T12:37:22.096Z,100803.37
2019-05-11T12:39:54.776Z,100805.19
2019-05-11T12:42:28.394Z,100812.23
2019-05-11T12:45:02.300Z,100806.53
2019-05-11T12:47:35.201Z,100803.28
2019-05-11T12:50:09.232Z,100803.03
2019-05-11T12:52:41.999Z,100798.71
2019-05-11T12:55:14.725Z,100803.32
2019-05-11T12:57:47.773Z,100799.45
2019-05-11T13:00:21.870Z,100799.84
2019-05-11T13:02:54.626Z,100797.16
2019-05-11T13:05:28.534Z,100802.20
2019-05-11T13:08:03.583Z,100794.48
2019-05-11T13:10:37.648Z,100800.53
2019-05-11T13:13:10.277Z,100801.47
2019-05-11T13:15:42.652Z,100799.94
2019-05-11T13:18:15.299Z,100801.27
2019-05-11T13:20:48.381Z,100801.81
2019-05-11T13:23:21.110Z,100811.03
2019-05-11T13:25:53.795Z,100808.70
2019-05-11T13:28:28.231Z,100806.98
2019-05-11T13:31:00.555Z,100805.00
2019-05-11T13:33:33.299Z,100806.85
2019-05-11T13:36:05.736Z,100800.62
2019-05-11T13:38:38.792Z,100804.09
2019-05-11T13:41:11.832Z,100802.77
2019-05-11T13:43:44.371Z,100805.14
2019-05-11T13:46:18.029Z,100803.63
2019-05-11T13:48:50.916Z,100804.06
2019-05-11T13:51:23.376Z,100801.36
2019-05-11T13:53:58.385Z,100798.03
2019-05-11T13:56:32.308Z,100796.13
2019-05-11T13:59:10.933Z,100802.67
2019-05-11T14:01:43.528Z,100802.00
2019-05-11T14:04:18.176Z,100804.13
2019-05-11T14:06:50.795Z,100797.38
2019-05-11T14:09:23.503Z,100797.48
2019-05-11T14:11:58.226Z,100797.94
2019-05-11T14:14:31.391Z,100794.00
2019-05-11T14:17:03.971Z,100791.25
2019-05-11T14:19:38.443Z,100790.52
2019-05-11T14:22:10.688Z,100783.78
2019-05-11T14:24:43.583Z,100777.03
2019-05-11T14:27:17.816Z,100780.39
2019-05-11T14:29:50.404Z,100779.66
2019-05-11T14:32:23.447Z,100784.39
2019-05-11T14:34:57.834Z,100785.16
2019-05-11T14:37:30.553Z,100784.48
2019-05-11T14:40:03.474Z,100779.00
2019-05-11T14:42:37.639Z,100787.23
2019-05-11T14:45:10.982Z,100777.72
2019-05-11T14:47:43.688Z,100779.96
2019-05-11T14:50:18.703Z,100783.13
2019-05-11T14:52:50.822Z,100783.73
2019-05-11T14:55:23.618Z,100778.91
2019-05-11T14:57:57.680Z,100785.21
2019-05-11T15:00:30.535Z,100774.40
2019-05-11T15:03:03.138Z,100779.65
2019-05-11T15:05:37.571Z,100781.28
2019-05-11T15:08:10.483Z,100787.14
2019-05-11T15:10:43.052Z,100781.50
2019-05-11T15:13:15.704Z,100783.14
2019-05-11T15:15:48.755Z,100785.00
2019-05-11T15:18:34.964Z,100782.41
2019-05-11T15:20:57.898Z,100784.03
2019-05-11T15:23:30.061Z,100782.83
2019-05-11T15:26:02.743Z,100782.70
2019-05-11T15:28:37.799Z,100776.84
2019-05-11T15:31:10.079Z,100778.25
2019-05-11T15:33:42.587Z,100779.59
2019-05-11T15:36:15.029Z,100778.30
2019-05-11T15:38:48.158Z,100774.62
2019-05-11T15:41:21.532Z,100780.98
2019-05-11T15:43:54.243Z,100778.91
2019-05-11T15:46:28.236Z,100774.84
2019-05-11T15:49:03.402Z,100776.98
2019-05-11T15:51:35.377Z,100774.92
2019-05-11T15:54:08.030Z,100781.73
2019-05-11T15:56:40.659Z,100780.71
2019-05-11T15:59:13.129Z,100780.11
2019-05-11T16:01:45.522Z,100778.85
2019-05-11T16:04:18.308Z,100777.56
2019-05-11T16:06:50.822Z,100783.13
2019-05-11T16:09:23.560Z,100783.86
2019-05-11T16:11:56.210Z,100789.27
2019-05-11T16:14:29.250Z,100786.00
2019-05-11T16:17:01.730Z,100794.94
2019-05-11T16:19:34.677Z,100790.07
2019-05-11T16:22:09.863Z,100794.80
2019-05-11T16:24:42.176Z,100797.91
2019-05-11T16:27:15.251Z,100795.59
2019-05-11T16:29:47.997Z,100798.34
2019-05-11T16:32:21.120Z,100807.88
2019-05-11T16:34:53.785Z,100798.08
2019-05-11T16:37:28.717Z,100804.58
2019-05-11T16:40:00.449Z,100803.47
2019-05-11T16:42:33.055Z,100804.80
2019-05-11T16:45:08.340Z,100810.11
2019-05-11T16:47:40.124Z,100817.63
2019-05-11T16:50:13.018Z,100816.72
2019-05-11T16:52:47.908Z,100815.00
2019-05-11T16:55:19.858Z,100827.20
2019-05-11T16:57:52.720Z,100821.72
2019-05-11T17:00:25.422Z,100823.23
2019-05-11T17:02:57.871Z,100821.17
2019-05-11T17:05:33.705Z,100821.89
2019-05-11T17:08:04.738Z,100818.16
2019-05-11T17:10:37.485Z,100811.88
2019-05-11T17:13:10.002Z,100805.80
2019-05-11T17:15:42.620Z,100816.95
2019-05-11T17:18:15.183Z,100821.28
2019-05-11T17:20:48.042Z,100821.19
2019-05-11T17:23:20.557Z,100818.16
2019-05-11T17:25:53.075Z,100813.28
2019-05-11T17:28:27.950Z,100822.66
2019-05-11T17:31:03.011Z,100826.17
2019-05-11T17:33:35.300Z,100833.34
2019-05-11T17:36:08.555Z,100834.89
2019-05-11T17:38:41.137Z,100830.78
2019-05-11T17:41:13.639Z,100826.94
2019-05-11T17:43:48.006Z,100825.30
2019-05-11T17:46:20.439Z,100825.16
2019-05-11T17:48:52.909Z,100826.23
2019-05-11T17:51:25.767Z,100820.00
2019-05-11T17:53:59.716Z,100823.28
2019-05-11T17:56:32.375Z,100825.95
2019-05-11T17:59:07.858Z,100828.19
2019-05-11T18:01:39.652Z,100823.97
2019-05-11T18:04:12.553Z,100827.58
2019-05-11T18:06:48.482Z,100829.22
2019-05-11T18:09:21.847Z,100832.48
2019-05-11T18:11:58.096Z,100833.29
2019-05-11T18:14:30.094Z,100837.51
2019-05-11T18:17:02.782Z,100838.11
2019-05-11T18:19:35.275Z,100842.09
2019-05-11T18:22:08.312Z,100837.65
2019-05-11T18:24:41.159Z,100836.84
2019-05-11T18:27:14.555Z,100837.08
2019-05-11T18:29:48.589Z,100835.88
2019-05-11T18:32:24.339Z,100841.72
2019-05-11T18:34:58.833Z,100842.79
2019-05-11T18:37:31.108Z,100847.23
2019-05-11T18:40:03.613Z,100842.42
2019-05-11T18:42:38.539Z,100844.63
2019-05-11T18:45:15.412Z,100838.80
2019-05-11T18:47:49.357Z,100848.84
2019-05-11T18:50:30.457Z,100845.45
2019-05-11T18:52:58.125Z,100849.45
2019-05-11T18:55:31.185Z,100851.88
2019-05-11T18:58:04.054Z,100854.13
2019-05-11T19:00:38.155Z,100863.13
2019-05-11T19:03:11.444Z,100865.51
2019-05-11T19:05:47.855Z,100865.84
2019-05-11T19:08:20.019Z,100863.87
2019-05-11T19:10:57.799Z,100864.67
2019-05-11T19:13:34.257Z,100861.63
2019-05-11T19:16:14.206Z,100861.06
2019-05-11T19:18:48.051Z,100860.23
2019-05-11T19:21:21.327Z,100869.83
2019-05-11T19:24:00.805Z,100868.42
2019-05-11T19:26:35.952Z,100874.65
2019-05-11T19:29:13.421Z,100869.97
2019-05-11T19:31:47.993Z,100872.92
2019-05-11T19:34:21.081Z,100875.96
2019-05-11T19:36:54.236Z,100868.33
2019-05-11T19:39:30.729Z,100868.33
2019-05-11T19:42:07.914Z,100863.89
2019-05-11T19:44:50.322Z,100869.05
2019-05-11T19:47:24.806Z,100870.02
2019-05-11T19:50:01.330Z,100868.95
2019-05-11T19:52:35.144Z,100862.77
2019-05-11T19:55:08.994Z,100867.78
2019-05-11T19:57:42.515Z,100859.95
2019-05-11T20:00:18.363Z,100855.97
2019-05-11T20:02:51.433Z,100860.98
2019-05-11T20:05:23.881Z,100863.22
2019-05-11T20:07:58.312Z,100857.37
2019-05-11T20:10:30.656Z,100856.53
2019-05-11T20:13:03.228Z,100853.27
2019-05-11T20:15:37.936Z,100860.20
2019-05-11T20:18:09.923Z,100859.30
2019-05-11T20:20:42.253Z,100859.64
2019-05-11T20:23:14.862Z,100864.45
2019-05-11T20:25:47.873Z,100854.99
2019-05-11T20:28:21.317Z,100863.05
2019-05-11T20:30:53.748Z,100860.81
2019-05-11T20:33:27.989Z,100863.76
2019-05-11T20:36:00.657Z,100872.56
2019-05-11T20:38:33.523Z,100872.30
2019-05-11T20:41:08.302Z,100872.06
2019-05-11T20:43:41.023Z,100872.20
2019-05-11T20:46:13.532Z,100872.77
2019-05-11T20:48:46.001Z,100875.95
2019-05-11T20:51:32.804Z,100875.72
2019-05-11T20:53:53.037Z,100881.10
2019-05-11T20:56:25.561Z,100877.02
2019-05-11T20:58:59.510Z,100877.49
2019-05-11T21:01:32.440Z,100881.84
2019-05-11T21:04:04.876Z,100881.37
2019-05-11T21:06:39.140Z,100874.48
2019-05-11T21:09:11.537Z,100879.06
2019-05-11T21:11:44.059Z,100876.16
2019-05-11T21:14:18.195Z,100876.27
2019-05-11T21:16:50.838Z,100873.02
2019-05-11T21:19:23.274Z,100868.58
2019-05-11T21:21:58.765Z,100865.30
2019-05-11T21:24:29.917Z,100861.09
2019-05-11T21:27:02.429Z,100863.06
2019-05-11T21:29:34.929Z,100859.45
2019-05-11T21:32:08.089Z,100852.20
2019-05-11T21:34:40.803Z,100858.41
2019-05-11T21:37:13.322Z,100857.34
2019-05-11T21:39:45.779Z,100853.27
2019-05-11T21:42:18.283Z,100850.83
2019-05-11T21:44:51.029Z,100854.80
2019-05-11T21:47:24.034Z,100850.36
2019-05-11T21:49:57.778Z,100853.30
2019-05-11T21:52:30.521Z,100855.41
2019-05-11T21:55:03.224Z,100850.16
2019-05-11T21:57:35.821Z,100845.72
2019-05-11T22:00:11.544Z,100839.87
2019-05-11T22:02:44.091Z,100841.27
2019-05-11T22:05:18.324Z,100837.86
2019-05-11T22:07:50.679Z,100834.12
2019-05-11T22:10:23.676Z,100836.13
2019-05-11T22:12:56.030Z,100830.27
2019-05-11T22:15:30.762Z,100828.41
2019-05-11T22:18:02.765Z,100822.79
2019-05-11T22:20:35.214Z,100818.58
2019-05-11T22:23:08.422Z,100816.34
2019-05-11T22:25:41.175Z,100815.30
2019-05-11T22:28:14.337Z,100806.41
2019-05-11T22:30:48.376Z,100807.48
2019-05-11T22:33:21.018Z,100804.91
2019-05-11T22:35:53.816Z,100800.91
2019-05-11T22:38:30.068Z,100800.91
2019-05-11T22:41:00.686Z,100806.08
2019-05-11T22:43:33.085Z,100801.41
2019-05-11T22:46:05.509Z,100796.95
2019-05-11T22:48:38.242Z,100793.55
2019-05-11T22:51:11.064Z,100792.62
2019-05-11T22:53:47.410Z,100789.47
2019-05-11T22:56:20.152Z,100781.85
2019-05-11T22:58:52.459Z,100786.06
2019-05-11T23:01:24.889Z,100783.39
2019-05-11T23:03:58.611Z,100779.75
2019-05-11T23:06:31.478Z,100778.81
2019-05-11T23:09:04.569Z,100777.78
2019-05-11T23:11:37.949Z,100778.95
2019-05-11T23:14:11.332Z,100772.64
2019-05-11T23:16:43.905Z,100772.41
2019-05-11T23:19:18.259Z,100771.60
2019-05-11T23:21:51.104Z,100769.97
2019-05-11T23:24:24.147Z,100777.92
2019-05-11T23:26:57.185Z,100763.19
2019-05-11T23:29:49.011Z,100761.45
2019-05-11T23:32:22.324Z,100760.84
2019-05-11T23:34:55.096Z,100762.62
2019-05-11T23:37:27.954Z,100763.52
2019-05-11T23:40:00.814Z,100764.69
2019-05-11T23:42:33.718Z,100759.91
2019-05-11T23:45:08.426Z,100755.47
2019-05-11T23:47:42.761Z,100750.42
2019-05-11T23:50:18.960Z,100753.83
2019-05-11T23:53:05.592Z,100753.00
2019-05-11T23:55:25.445Z,100754.17
2019-05-11T23:57:57.870Z,100754.77
